createdAt,value
2018-07-26T00:01:12.249Z,25.60
2018-07-26T00:03:41.457Z,25.64
2018-07-26T00:06:10.558Z,25.61
2018-07-26T00:08:39.663Z,25.58
2018-07-26T00:11:08.746Z,25.53
2018-07-26T00:13:38.393Z,25.23
2018-07-26T00:16:07.476Z,24.97
2018-07-26T00:18:36.563Z,24.69
2018-07-26T00:21:05.701Z,24.67
2018-07-26T00:23:34.960Z,24.79
2018-07-26T00:26:04.059Z,24.97
2018-07-26T00:28:33.178Z,25.02
2018-07-26T00:31:02.245Z,25.08
2018-07-26T00:33:31.318Z,25.01
2018-07-26T00:36:00.411Z,24.77
2018-07-26T00:38:29.534Z,24.90
2018-07-26T00:40:58.621Z,24.83
2018-07-26T00:43:27.678Z,24.74
2018-07-26T00:45:56.905Z,24.66
2018-07-26T00:48:25.980Z,24.57
2018-07-26T00:50:55.058Z,24.67
2018-07-26T00:53:24.127Z,24.57
2018-07-26T00:55:53.228Z,24.44
2018-07-26T00:58:22.329Z,24.49
2018-07-26T01:00:52.426Z,24.41
2018-07-26T01:03:21.459Z,24.40
2018-07-26T01:05:50.553Z,24.36
2018-07-26T01:08:19.649Z,24.38
2018-07-26T01:10:48.722Z,24.39
2018-07-26T01:13:17.799Z,24.40
2018-07-26T01:15:46.870Z,24.32
2018-07-26T01:18:15.973Z,24.22
2018-07-26T01:20:45.043Z,24.24
2018-07-26T01:23:14.101Z,24.14
2018-07-26T01:25:43.144Z,24.05
2018-07-26T01:28:12.252Z,23.97
2018-07-26T01:30:41.323Z,24.05
2018-07-26T01:33:10.402Z,24.11
2018-07-26T01:35:39.475Z,24.03
2018-07-26T01:38:08.517Z,24.01
2018-07-26T01:40:37.788Z,24.02
2018-07-26T01:43:17.914Z,23.94
2018-07-26T01:45:47.007Z,23.85
2018-07-26T01:48:16.060Z,23.81
2018-07-26T01:50:45.130Z,23.82
2018-07-26T01:53:14.222Z,23.91
2018-07-26T01:55:43.286Z,23.87
2018-07-26T01:58:12.339Z,23.79
2018-07-26T02:00:41.397Z,23.79
2018-07-26T02:03:11.141Z,23.79
2018-07-26T02:05:40.198Z,23.77
2018-07-26T02:08:09.290Z,23.77
2018-07-26T02:10:38.380Z,23.66
2018-07-26T02:13:07.425Z,23.59
2018-07-26T02:15:36.508Z,23.64
2018-07-26T02:18:05.589Z,23.58
2018-07-26T02:20:34.660Z,23.40
2018-07-26T02:23:03.730Z,23.27
2018-07-26T02:25:32.800Z,23.14
2018-07-26T02:28:01.898Z,23.17
2018-07-26T02:30:31.014Z,23.14
2018-07-26T02:33:01.031Z,23.15
2018-07-26T02:35:30.114Z,23.18
2018-07-26T02:37:59.147Z,23.13
2018-07-26T02:40:28.196Z,23.07
2018-07-26T02:42:57.369Z,23.14
2018-07-26T02:45:26.438Z,23.18
2018-07-26T02:47:55.473Z,23.15
2018-07-26T02:50:24.571Z,23.06
2018-07-26T02:52:53.565Z,23.00
2018-07-26T02:55:22.692Z,23.05
2018-07-26T02:57:52.171Z,23.06
2018-07-26T03:00:21.222Z,23.10
2018-07-26T03:02:50.281Z,22.99
2018-07-26T03:05:19.372Z,23.01
2018-07-26T03:07:48.407Z,22.88
2018-07-26T03:10:17.628Z,22.93
2018-07-26T03:12:46.671Z,22.84
2018-07-26T03:15:15.730Z,22.82
2018-07-26T03:17:44.822Z,22.83
2018-07-26T03:20:13.908Z,22.81
2018-07-26T03:22:42.918Z,22.85
2018-07-26T03:25:12.063Z,22.83
2018-07-26T03:27:41.537Z,22.82
2018-07-26T03:30:10.918Z,22.90
2018-07-26T03:32:39.990Z,22.89
2018-07-26T03:35:09.146Z,22.90
2018-07-26T03:37:38.235Z,22.89
2018-07-26T03:40:07.356Z,22.85
2018-07-26T03:42:36.453Z,22.82
2018-07-26T03:45:06.113Z,22.78
2018-07-26T03:47:35.226Z,22.82
2018-07-26T03:50:04.790Z,22.74
2018-07-26T03:52:33.861Z,22.63
2018-07-26T03:55:02.907Z,22.50
2018-07-26T03:57:31.994Z,22.49
2018-07-26T04:00:01.065Z,22.52
2018-07-26T04:02:30.171Z,22.48
2018-07-26T04:04:59.283Z,22.50
2018-07-26T04:07:28.374Z,22.45
2018-07-26T04:09:57.477Z,22.49
2018-07-26T04:12:26.582Z,22.41
2018-07-26T04:14:55.678Z,22.25
2018-07-26T04:17:24.958Z,22.19
2018-07-26T04:19:54.038Z,22.25
2018-07-26T04:22:23.959Z,22.31
2018-07-26T04:24:53.248Z,22.31
2018-07-26T04:27:22.297Z,22.38
2018-07-26T04:29:51.848Z,22.44
2018-07-26T04:32:21.256Z,22.40
2018-07-26T04:34:50.364Z,22.45
2018-07-26T04:37:19.438Z,22.48
2018-07-26T04:39:48.580Z,22.34
2018-07-26T04:42:17.697Z,22.23
2018-07-26T04:44:47.221Z,22.22
2018-07-26T04:47:18.565Z,22.30
2018-07-26T04:49:47.622Z,22.16
2018-07-26T04:52:16.681Z,22.12
2018-07-26T04:54:45.734Z,22.24
2018-07-26T04:57:14.838Z,22.45
2018-07-26T04:59:43.911Z,22.48
2018-07-26T05:02:13.021Z,22.53
2018-07-26T05:04:42.093Z,22.41
2018-07-26T05:07:11.153Z,22.41
2018-07-26T05:09:40.205Z,22.46
2018-07-26T05:12:09.281Z,22.49
2018-07-26T05:14:38.365Z,22.57
2018-07-26T05:17:07.450Z,22.95
2018-07-26T05:19:36.545Z,23.45
2018-07-26T05:22:05.668Z,23.85
2018-07-26T05:24:34.781Z,24.10
2018-07-26T05:27:03.942Z,24.29
2018-07-26T05:29:33.089Z,24.49
2018-07-26T05:32:02.107Z,24.61
2018-07-26T05:34:31.218Z,24.70
2018-07-26T05:37:00.609Z,24.81
2018-07-26T05:39:29.807Z,24.94
2018-07-26T05:41:58.936Z,25.04
2018-07-26T05:44:28.061Z,25.11
2018-07-26T05:46:57.141Z,25.14
2018-07-26T05:49:26.173Z,25.23
2018-07-26T05:51:55.249Z,25.34
2018-07-26T05:54:24.330Z,25.18
2018-07-26T05:56:54.533Z,24.88
2018-07-26T05:59:24.366Z,24.67
2018-07-26T06:01:53.572Z,24.63
2018-07-26T06:04:22.818Z,24.58
2018-07-26T06:06:51.953Z,24.58
2018-07-26T06:09:21.145Z,24.69
2018-07-26T06:11:50.234Z,24.77
2018-07-26T06:14:19.878Z,24.77
2018-07-26T06:16:48.966Z,24.76
2018-07-26T06:19:19.499Z,24.87
2018-07-26T06:21:48.609Z,25.01
2018-07-26T06:24:17.671Z,25.11
2018-07-26T06:26:46.725Z,25.16
2018-07-26T06:29:15.846Z,25.22
2018-07-26T06:31:45.211Z,25.35
2018-07-26T06:34:14.282Z,25.46
2018-07-26T06:36:43.351Z,25.54
2018-07-26T06:39:13.866Z,25.55
2018-07-26T06:41:43.906Z,25.66
2018-07-26T06:44:13.695Z,25.71
2018-07-26T06:46:43.412Z,25.81
2018-07-26T06:49:12.512Z,25.91
2018-07-26T06:51:41.657Z,26.04
2018-07-26T06:54:10.714Z,26.17
2018-07-26T06:56:39.965Z,26.30
2018-07-26T06:59:09.061Z,26.42
2018-07-26T07:01:38.340Z,26.54
2018-07-26T07:04:07.906Z,26.68
2018-07-26T07:06:37.127Z,26.85
2018-07-26T07:09:08.997Z,26.98
2018-07-26T07:11:38.430Z,27.09
2018-07-26T07:14:07.543Z,27.23
2018-07-26T07:16:36.649Z,27.35
2018-07-26T07:19:05.854Z,27.47
2018-07-26T07:21:34.949Z,27.57
2018-07-26T07:24:04.076Z,27.65
2018-07-26T07:26:33.167Z,27.79
2018-07-26T07:29:02.279Z,27.90
2018-07-26T07:31:31.511Z,28.01
2018-07-26T07:34:00.784Z,28.07
2018-07-26T07:36:29.874Z,28.16
2018-07-26T07:38:58.932Z,28.28
2018-07-26T07:41:28.102Z,28.40
2018-07-26T07:43:57.252Z,28.51
2018-07-26T07:46:26.461Z,28.62
2018-07-26T07:48:55.489Z,28.75
2018-07-26T07:51:25.379Z,28.88
2018-07-26T07:53:54.609Z,28.98
2018-07-26T07:56:23.725Z,29.12
2018-07-26T07:58:52.836Z,29.20
2018-07-26T08:01:21.912Z,29.33
2018-07-26T08:03:50.940Z,29.45
2018-07-26T08:06:20.323Z,29.57
2018-07-26T08:08:49.932Z,29.62
2018-07-26T08:11:19.443Z,29.67
2018-07-26T08:13:48.650Z,29.76
2018-07-26T08:16:17.926Z,29.86
2018-07-26T08:18:46.985Z,30.01
2018-07-26T08:21:16.258Z,30.14
2018-07-26T08:23:45.289Z,30.26
2018-07-26T08:26:14.395Z,30.40
2018-07-26T08:28:43.464Z,30.48
2018-07-26T08:31:12.601Z,30.59
2018-07-26T08:33:42.582Z,30.67
2018-07-26T08:36:11.707Z,30.73
2018-07-26T08:38:40.934Z,30.77
2018-07-26T08:41:10.584Z,30.79
2018-07-26T08:43:39.618Z,30.84
2018-07-26T08:46:08.807Z,30.99
2018-07-26T08:48:38.035Z,31.08
2018-07-26T08:51:07.184Z,31.18
2018-07-26T08:53:36.299Z,31.23
2018-07-26T08:56:05.417Z,31.38
2018-07-26T08:58:34.518Z,31.48
2018-07-26T09:01:03.818Z,31.54
2018-07-26T09:03:32.882Z,31.66
2018-07-26T09:06:02.337Z,31.76
2018-07-26T09:08:31.429Z,31.87
2018-07-26T09:11:00.593Z,31.96
2018-07-26T09:13:30.159Z,32.06
2018-07-26T09:15:59.285Z,32.15
2018-07-26T09:18:28.378Z,32.18
2018-07-26T09:20:57.620Z,32.23
2018-07-26T09:23:26.778Z,32.28
2018-07-26T09:25:55.905Z,32.39
2018-07-26T09:28:25.026Z,32.49
2018-07-26T09:30:54.175Z,32.58
2018-07-26T09:33:23.380Z,32.70
2018-07-26T09:35:52.360Z,32.67
2018-07-26T09:38:22.347Z,32.44
2018-07-26T09:40:51.418Z,32.55
2018-07-26T09:43:20.597Z,32.69
2018-07-26T09:45:50.023Z,32.81
2018-07-26T09:48:19.877Z,32.85
2018-07-26T09:50:49.099Z,32.99
2018-07-26T09:53:18.275Z,33.06
2018-07-26T09:55:47.507Z,33.16
2018-07-26T09:58:16.596Z,33.27
2018-07-26T10:00:50.987Z,33.28
2018-07-26T10:03:20.142Z,33.32
2018-07-26T10:05:49.241Z,33.37
2018-07-26T10:08:18.285Z,33.46
2018-07-26T10:10:47.716Z,33.35
2018-07-26T10:13:16.799Z,33.45
2018-07-26T10:15:46.277Z,33.59
2018-07-26T10:18:18.145Z,33.64
2018-07-26T10:20:47.446Z,33.77
2018-07-26T10:23:16.564Z,33.82
2018-07-26T10:25:45.834Z,33.93
2018-07-26T10:28:15.034Z,33.97
2018-07-26T10:30:44.400Z,33.91
2018-07-26T10:33:13.445Z,34.04
2018-07-26T10:35:42.610Z,34.05
2018-07-26T10:38:11.719Z,34.12
2018-07-26T10:40:40.951Z,33.94
2018-07-26T10:43:10.147Z,33.99
2018-07-26T10:45:39.249Z,34.14
2018-07-26T10:48:08.508Z,34.34
2018-07-26T10:50:37.531Z,34.31
2018-07-26T10:53:07.033Z,34.40
2018-07-26T10:55:36.193Z,34.46
2018-07-26T10:58:05.289Z,34.63
2018-07-26T11:00:34.623Z,34.76
2018-07-26T11:03:03.818Z,34.82
2018-07-26T11:05:32.877Z,34.89
2018-07-26T11:08:01.975Z,34.85
2018-07-26T11:10:31.104Z,34.90
2018-07-26T11:13:00.158Z,34.90
2018-07-26T11:15:31.098Z,34.90
2018-07-26T11:18:00.938Z,35.05
2018-07-26T11:20:30.158Z,35.00
2018-07-26T11:22:59.409Z,35.05
2018-07-26T11:25:28.565Z,35.11
2018-07-26T11:27:57.622Z,35.33
2018-07-26T11:30:26.668Z,35.43
2018-07-26T11:32:55.783Z,35.52
2018-07-26T11:35:24.882Z,35.60
2018-07-26T11:37:53.993Z,35.53
2018-07-26T11:40:23.069Z,35.68
2018-07-26T11:42:52.250Z,35.59
2018-07-26T11:45:21.613Z,35.69
2018-07-26T11:47:50.721Z,35.84
2018-07-26T11:50:20.085Z,35.52
2018-07-26T11:52:49.168Z,35.60
2018-07-26T11:55:18.307Z,35.82
2018-07-26T11:57:47.486Z,35.90
2018-07-26T12:00:16.722Z,36.01
2018-07-26T12:02:45.899Z,36.02
2018-07-26T12:05:15.004Z,36.10
2018-07-26T12:07:44.194Z,36.24
2018-07-26T12:10:15.189Z,36.24
2018-07-26T12:12:44.266Z,36.32
2018-07-26T12:15:13.393Z,36.43
2018-07-26T12:17:42.587Z,36.53
2018-07-26T12:20:11.642Z,36.57
2018-07-26T12:22:41.029Z,36.69
2018-07-26T12:25:10.227Z,36.35
2018-07-26T12:27:39.311Z,36.35
2018-07-26T12:30:08.816Z,36.81
2018-07-26T12:32:37.934Z,37.04
2018-07-26T12:35:07.008Z,37.21
2018-07-26T12:37:36.158Z,37.32
2018-07-26T12:40:05.713Z,37.45
2018-07-26T12:42:34.911Z,37.27
2018-07-26T12:45:04.305Z,37.36
2018-07-26T12:47:33.789Z,37.08
2018-07-26T12:50:02.923Z,37.31
2018-07-26T12:52:32.110Z,37.28
2018-07-26T12:55:01.166Z,37.36
2018-07-26T12:57:30.332Z,37.62
2018-07-26T12:59:59.457Z,37.79
2018-07-26T13:02:28.618Z,37.94
2018-07-26T13:04:57.691Z,38.14
2018-07-26T13:07:26.998Z,38.32
2018-07-26T13:09:56.460Z,38.25
2018-07-26T13:12:25.884Z,38.29
2018-07-26T13:14:55.010Z,38.19
2018-07-26T13:17:24.119Z,38.37
2018-07-26T13:19:53.181Z,38.42
2018-07-26T13:22:22.284Z,38.56
2018-07-26T13:24:51.928Z,38.74
2018-07-26T13:27:21.301Z,38.39
2018-07-26T13:29:50.350Z,38.56
2018-07-26T13:32:19.476Z,38.17
2018-07-26T13:34:48.783Z,38.46
2018-07-26T13:37:17.878Z,38.89
2018-07-26T13:39:47.036Z,37.66
2018-07-26T13:42:16.158Z,38.27
2018-07-26T13:44:45.318Z,38.66
2018-07-26T13:47:14.427Z,38.98
2018-07-26T13:49:43.734Z,38.72
2018-07-26T13:52:12.866Z,39.12
2018-07-26T13:54:42.053Z,39.43
2018-07-26T13:57:11.277Z,39.47
2018-07-26T13:59:40.461Z,39.68
2018-07-26T14:02:09.647Z,39.89
2018-07-26T14:04:38.875Z,39.74
2018-07-26T14:07:07.987Z,39.56
2018-07-26T14:09:37.202Z,39.88
2018-07-26T14:12:06.574Z,39.95
2018-07-26T14:14:35.657Z,40.22
2018-07-26T14:17:05.047Z,40.29
2018-07-26T14:19:34.194Z,39.50
2018-07-26T14:22:03.327Z,39.31
2018-07-26T14:24:32.502Z,38.71
2018-07-26T14:27:01.595Z,38.85
2018-07-26T14:29:31.470Z,39.45
2018-07-26T14:32:00.541Z,39.96
2018-07-26T14:34:29.655Z,40.01
2018-07-26T14:36:58.719Z,40.23
2018-07-26T14:39:27.885Z,39.94
2018-07-26T14:41:57.061Z,39.20
2018-07-26T14:44:26.209Z,38.63
2018-07-26T14:46:55.561Z,38.31
2018-07-26T14:49:26.161Z,38.66
2018-07-26T14:51:55.364Z,39.25
2018-07-26T14:54:24.425Z,39.87
2018-07-26T14:56:53.483Z,40.34
2018-07-26T14:59:22.627Z,40.75
2018-07-26T15:01:51.821Z,40.81
2018-07-26T15:04:20.926Z,40.13
2018-07-26T15:06:50.134Z,39.36
2018-07-26T15:09:19.339Z,39.93
2018-07-26T15:11:49.056Z,40.52
2018-07-26T15:14:18.535Z,40.91
2018-07-26T15:16:47.721Z,41.20
2018-07-26T15:19:16.957Z,41.44
2018-07-26T15:21:46.163Z,41.97
2018-07-26T15:24:15.650Z,42.28
2018-07-26T15:26:45.642Z,42.30
2018-07-26T15:29:14.737Z,42.20
2018-07-26T15:31:43.838Z,42.40
2018-07-26T15:34:12.898Z,42.43
2018-07-26T15:36:42.221Z,42.42
2018-07-26T15:39:11.542Z,42.39
2018-07-26T15:41:45.548Z,42.66
2018-07-26T15:44:15.889Z,42.66
2018-07-26T15:46:44.985Z,42.78
2018-07-26T15:49:14.075Z,42.97
2018-07-26T15:51:43.155Z,42.93
2018-07-26T15:54:12.249Z,43.17
2018-07-26T15:56:41.886Z,43.32
2018-07-26T15:59:11.195Z,43.17
2018-07-26T16:01:40.343Z,42.90
2018-07-26T16:04:09.522Z,42.18
2018-07-26T16:06:38.789Z,42.42
2018-07-26T16:09:09.798Z,42.43
2018-07-26T16:11:39.111Z,43.02
2018-07-26T16:14:08.964Z,43.26
2018-07-26T16:16:38.157Z,43.43
2018-07-26T16:19:07.221Z,43.09
2018-07-26T16:21:36.566Z,42.79
2018-07-26T16:24:05.795Z,42.45
2018-07-26T16:26:35.818Z,43.08
2018-07-26T16:29:05.099Z,43.09
2018-07-26T16:31:34.432Z,42.96
2018-07-26T16:34:03.731Z,43.24
2018-07-26T16:36:32.790Z,43.49
2018-07-26T16:39:01.883Z,43.25
2018-07-26T16:41:30.967Z,43.18
2018-07-26T16:44:00.058Z,43.40
2018-07-26T16:46:29.131Z,43.33
2018-07-26T16:48:58.245Z,42.07
2018-07-26T16:51:27.927Z,42.68
2018-07-26T16:53:57.535Z,42.80
2018-07-26T16:56:26.679Z,42.84
2018-07-26T16:58:55.908Z,43.18
2018-07-26T17:01:24.818Z,43.32
2018-07-26T17:03:53.935Z,43.87
2018-07-26T17:06:23.036Z,43.42
2018-07-26T17:08:52.132Z,42.65
2018-07-26T17:11:21.232Z,42.08
2018-07-26T17:13:50.328Z,41.46
2018-07-26T17:16:19.390Z,41.09
2018-07-26T17:18:48.607Z,40.03
2018-07-26T17:21:17.859Z,39.62
2018-07-26T17:23:47.474Z,39.39
2018-07-26T17:26:16.653Z,39.05
2018-07-26T17:28:45.754Z,38.90
2018-07-26T17:31:14.922Z,39.02
2018-07-26T17:33:44.034Z,38.66
2018-07-26T17:36:13.196Z,38.47
2018-07-26T17:38:42.307Z,38.30
2018-07-26T17:41:11.403Z,38.19
2018-07-26T17:43:40.512Z,38.19
2018-07-26T17:46:09.617Z,38.01
2018-07-26T17:48:38.751Z,37.86
2018-07-26T17:51:07.973Z,37.86
2018-07-26T17:53:37.100Z,37.83
2018-07-26T17:56:06.298Z,37.78
2018-07-26T17:58:35.352Z,37.64
2018-07-26T18:01:04.621Z,37.62
2018-07-26T18:03:34.006Z,37.55
2018-07-26T18:06:03.071Z,37.51
2018-07-26T18:08:32.214Z,37.44
2018-07-26T18:11:01.404Z,37.32
2018-07-26T18:13:30.510Z,37.28
2018-07-26T18:15:59.905Z,37.21
2018-07-26T18:18:29.030Z,37.05
2018-07-26T18:20:58.233Z,37.03
2018-07-26T18:23:27.403Z,37.07
2018-07-26T18:25:56.607Z,37.04
2018-07-26T18:28:25.829Z,36.94
2018-07-26T18:30:55.166Z,36.83
2018-07-26T18:33:24.395Z,36.72
2018-07-26T18:35:53.488Z,36.60
2018-07-26T18:38:22.619Z,36.42
2018-07-26T18:40:51.814Z,36.27
2018-07-26T18:43:20.921Z,36.27
2018-07-26T18:45:50.100Z,36.16
2018-07-26T18:48:19.224Z,36.04
2018-07-26T18:50:48.334Z,35.93
2018-07-26T18:53:17.416Z,35.86
2018-07-26T18:55:46.469Z,35.79
2018-07-26T18:58:15.587Z,35.78
2018-07-26T19:00:44.702Z,35.74
2018-07-26T19:03:13.835Z,35.66
2018-07-26T19:05:42.934Z,35.29
2018-07-26T19:08:12.078Z,35.27
2018-07-26T19:10:41.293Z,35.16
2018-07-26T19:13:10.449Z,35.07
2018-07-26T19:15:39.706Z,34.91
2018-07-26T19:18:08.753Z,34.69
2018-07-26T19:20:37.974Z,34.73
2018-07-26T19:23:07.003Z,34.53
2018-07-26T19:25:36.220Z,34.44
2018-07-26T19:28:05.365Z,34.36
2018-07-26T19:30:34.481Z,34.12
2018-07-26T19:33:03.558Z,34.13
2018-07-26T19:35:32.779Z,34.17
2018-07-26T19:38:02.509Z,34.20
2018-07-26T19:40:31.637Z,34.13
2018-07-26T19:43:01.213Z,34.07
2018-07-26T19:45:30.328Z,34.02
2018-07-26T19:48:03.887Z,33.93
2018-07-26T19:50:32.974Z,33.82
2018-07-26T19:53:02.107Z,33.70
2018-07-26T19:55:31.262Z,33.45
2018-07-26T19:58:00.383Z,33.39
2018-07-26T20:00:29.422Z,33.33
2018-07-26T20:02:58.502Z,33.18
2018-07-26T20:05:27.590Z,32.93
2018-07-26T20:07:56.721Z,32.57
2018-07-26T20:10:25.866Z,32.55
2018-07-26T20:12:55.018Z,32.68
2018-07-26T20:15:24.179Z,32.59
2018-07-26T20:17:53.546Z,32.61
2018-07-26T20:20:22.745Z,32.59
2018-07-26T20:22:51.801Z,32.47
2018-07-26T20:25:20.885Z,32.40
2018-07-26T20:27:50.033Z,32.27
2018-07-26T20:30:19.498Z,32.23
2018-07-26T20:32:48.644Z,32.03
2018-07-26T20:35:17.689Z,31.91
2018-07-26T20:37:46.825Z,31.73
2018-07-26T20:40:15.857Z,31.69
2018-07-26T20:42:45.020Z,31.73
2018-07-26T20:45:14.147Z,31.53
2018-07-26T20:47:43.290Z,31.37
2018-07-26T20:50:12.332Z,31.34
2018-07-26T20:52:41.477Z,31.12
2018-07-26T20:55:10.529Z,31.01
2018-07-26T20:57:39.620Z,31.10
2018-07-26T21:00:10.560Z,31.13
2018-07-26T21:02:39.722Z,31.11
2018-07-26T21:05:09.006Z,30.94
2018-07-26T21:07:38.044Z,30.83
2018-07-26T21:10:08.163Z,30.57
2018-07-26T21:12:37.269Z,30.64
2018-07-26T21:15:07.195Z,30.73
2018-07-26T21:17:36.347Z,30.64
2018-07-26T21:20:05.674Z,30.55
2018-07-26T21:22:34.889Z,30.31
2018-07-26T21:25:04.152Z,30.25
2018-07-26T21:27:33.220Z,30.18
2018-07-26T21:30:03.062Z,30.08
2018-07-26T21:32:32.133Z,29.99
2018-07-26T21:35:01.179Z,29.80
2018-07-26T21:37:30.432Z,29.65
2018-07-26T21:39:59.831Z,29.59
2018-07-26T21:42:28.881Z,29.59
2018-07-26T21:44:58.098Z,29.57
2018-07-26T21:47:27.294Z,29.47
2018-07-26T21:49:56.461Z,29.12
2018-07-26T21:52:25.677Z,29.13
2018-07-26T21:54:54.826Z,29.19
2018-07-26T21:57:24.289Z,29.10
2018-07-26T21:59:53.382Z,29.10
2018-07-26T22:02:22.548Z,29.08
2018-07-26T22:04:51.610Z,28.96
2018-07-26T22:07:20.898Z,28.95
2018-07-26T22:09:49.950Z,28.79
2018-07-26T22:12:19.074Z,28.68
2018-07-26T22:14:48.172Z,28.68
2018-07-26T22:17:17.243Z,28.41
2018-07-26T22:19:46.278Z,28.34
2018-07-26T22:22:15.372Z,28.24
2018-07-26T22:24:44.408Z,28.14
2018-07-26T22:27:13.483Z,28.12
2018-07-26T22:29:42.607Z,27.97
2018-07-26T22:32:11.697Z,27.88
2018-07-26T22:34:40.849Z,27.93
2018-07-26T22:37:09.992Z,27.75
2018-07-26T22:39:39.083Z,27.70
2018-07-26T22:42:08.183Z,27.60
2018-07-26T22:44:37.259Z,27.51
2018-07-26T22:47:06.313Z,27.34
2018-07-26T22:49:35.365Z,27.34
2018-07-26T22:52:04.449Z,27.60
2018-07-26T22:54:33.506Z,27.57
2018-07-26T22:57:02.606Z,27.50
2018-07-26T22:59:31.646Z,27.44
2018-07-26T23:02:00.737Z,27.42
2018-07-26T23:04:29.778Z,27.32
2018-07-26T23:06:58.888Z,27.28
2018-07-26T23:09:27.981Z,27.14
2018-07-26T23:11:57.105Z,27.08
2018-07-26T23:14:26.177Z,26.93
2018-07-26T23:16:56.476Z,26.92
2018-07-26T23:19:25.604Z,26.94
2018-07-26T23:21:54.652Z,26.85
2018-07-26T23:24:34.531Z,26.81
2018-07-26T23:27:03.597Z,26.80
2018-07-26T23:29:32.719Z,25.70
2018-07-26T23:32:01.817Z,26.66
2018-07-26T23:34:30.961Z,26.73
2018-07-26T23:37:00.007Z,26.75
2018-07-26T23:39:30.045Z,26.68
2018-07-26T23:41:59.057Z,26.49
2018-07-26T23:44:28.305Z,26.04
2018-07-26T23:46:57.417Z,25.93
2018-07-26T23:49:26.500Z,25.98
2018-07-26T23:51:55.553Z,26.02
2018-07-26T23:54:24.617Z,26.04
2018-07-26T23:56:53.661Z,26.16
2018-07-26T23:59:22.743Z,26.02
